createdAt,value
2019-05-22T00:01:56.613Z,85.38
2019-05-22T00:04:31.566Z,85.06
2019-05-22T00:07:05.743Z,85.05
2019-05-22T00:09:38.925Z,85.25
2019-05-22T00:12:11.586Z,84.70
2019-05-22T00:14:41.679Z,84.69
2019-05-22T00:17:13.767Z,84.74
2019-05-22T00:19:44.400Z,84.65
2019-05-22T00:22:25.136Z,84.51
2019-05-22T00:24:56.351Z,84.62
2019-05-22T00:27:27.800Z,84.56
2019-05-22T00:29:57.982Z,84.53
2019-05-22T00:32:29.090Z,84.47
2019-05-22T00:34:58.691Z,84.37
2019-05-22T00:37:29.172Z,84.40
2019-05-22T00:40:00.786Z,84.61
2019-05-22T00:42:32.949Z,84.54
2019-05-22T00:45:02.580Z,84.79
2019-05-22T00:47:33.820Z,84.52
2019-05-22T00:50:05.097Z,84.68
2019-05-22T00:52:52.215Z,84.72
2019-05-22T00:55:24.504Z,84.60
2019-05-22T00:57:58.708Z,84.50
2019-05-22T01:00:45.261Z,84.28
2019-05-22T01:03:17.013Z,84.06
2019-05-22T01:05:48.170Z,83.94
2019-05-22T01:08:17.633Z,84.13
2019-05-22T01:10:50.940Z,83.94
2019-05-22T01:13:22.031Z,84.08
2019-05-22T01:15:52.080Z,84.31
2019-05-22T01:18:23.485Z,84.45
2019-05-22T01:20:55.333Z,84.45
2019-05-22T01:23:25.539Z,84.19
2019-05-22T01:25:56.169Z,84.49
2019-05-22T01:28:26.068Z,84.45
2019-05-22T01:30:58.344Z,84.47
2019-05-22T01:33:32.288Z,84.59
2019-05-22T01:36:03.403Z,84.60
2019-05-22T01:38:34.800Z,84.41
2019-05-22T01:41:23.548Z,84.57
2019-05-22T01:43:55.256Z,84.71
2019-05-22T01:46:25.867Z,84.79
2019-05-22T01:48:59.675Z,84.88
2019-05-22T01:51:29.339Z,84.89
2019-05-22T01:54:00.154Z,85.02
2019-05-22T01:56:30.768Z,84.96
2019-05-22T01:59:00.295Z,84.90
2019-05-22T02:01:32.408Z,84.98
2019-05-22T02:04:02.307Z,85.07
2019-05-22T02:06:32.898Z,85.22
2019-05-22T02:09:21.656Z,85.23
2019-05-22T02:11:54.380Z,85.31
2019-05-22T02:14:25.598Z,85.29
2019-05-22T02:16:58.250Z,85.38
2019-05-22T02:19:28.482Z,85.16
2019-05-22T02:21:59.831Z,85.06
2019-05-22T02:24:31.184Z,85.01
2019-05-22T02:27:02.298Z,84.99
2019-05-22T02:29:32.927Z,84.90
2019-05-22T02:32:02.393Z,84.48
2019-05-22T02:34:32.433Z,84.46
2019-05-22T02:37:02.206Z,83.84
2019-05-22T02:39:33.142Z,83.71
2019-05-22T02:42:06.661Z,83.71
2019-05-22T02:44:38.693Z,83.70
2019-05-22T02:47:19.211Z,83.59
2019-05-22T02:49:43.505Z,83.54
2019-05-22T02:52:15.274Z,83.37
2019-05-22T02:54:45.458Z,83.32
2019-05-22T02:57:15.476Z,83.39
2019-05-22T03:02:26.532Z,83.54
2019-05-22T03:05:11.280Z,83.59
2019-05-22T03:07:41.926Z,83.17
2019-05-22T03:10:13.241Z,82.80
2019-05-22T03:12:45.653Z,82.99
2019-05-22T03:15:18.156Z,83.18
2019-05-22T03:17:50.017Z,83.16
2019-05-22T03:20:21.026Z,83.22
2019-05-22T03:22:57.278Z,83.53
2019-05-22T03:25:28.499Z,83.68
2019-05-22T03:27:58.731Z,83.74
2019-05-22T03:30:32.727Z,83.86
2019-05-22T03:33:06.745Z,84.03
2019-05-22T03:35:39.338Z,84.00
2019-05-22T03:38:10.486Z,84.10
2019-05-22T03:40:41.217Z,84.08
2019-05-22T03:43:28.393Z,84.21
2019-05-22T03:46:00.769Z,84.22
2019-05-22T03:48:37.812Z,84.34
2019-05-22T03:51:14.311Z,84.35
2019-05-22T03:53:46.516Z,84.51
2019-05-22T03:56:17.816Z,84.70
2019-05-22T03:58:47.491Z,84.76
2019-05-22T04:01:18.775Z,84.86
2019-05-22T04:03:49.802Z,84.88
2019-05-22T04:06:20.998Z,84.91
2019-05-22T04:08:52.157Z,84.81
2019-05-22T04:11:23.195Z,84.67
2019-05-22T04:13:53.236Z,84.76
2019-05-22T04:16:24.411Z,85.01
2019-05-22T04:18:56.082Z,85.09
2019-05-22T04:21:25.791Z,85.18
2019-05-22T04:23:56.560Z,85.12
2019-05-22T04:26:28.499Z,85.25
2019-05-22T04:28:59.007Z,85.18
2019-05-22T04:31:52.044Z,85.53
2019-05-22T04:34:21.908Z,85.68
2019-05-22T04:36:52.006Z,85.92
2019-05-22T04:39:24.343Z,85.89
2019-05-22T04:41:55.622Z,85.79
2019-05-22T04:44:26.482Z,85.96
2019-05-22T04:46:56.617Z,86.18
2019-05-22T04:49:26.414Z,86.41
2019-05-22T04:51:56.447Z,86.38
2019-05-22T04:54:26.051Z,86.35
2019-05-22T04:56:55.677Z,86.31
2019-05-22T04:59:26.599Z,86.24
2019-05-22T05:01:56.891Z,86.14
2019-05-22T05:04:27.047Z,86.01
2019-05-22T05:06:56.689Z,85.43
2019-05-22T05:09:26.559Z,85.54
2019-05-22T05:11:56.494Z,85.37
2019-05-22T05:14:26.364Z,85.35
2019-05-22T05:16:56.040Z,84.96
2019-05-22T05:19:26.337Z,84.85
2019-05-22T05:21:55.912Z,84.60
2019-05-22T05:24:25.459Z,84.44
2019-05-22T05:26:55.841Z,84.28
2019-05-22T05:29:27.639Z,84.57
2019-05-22T05:31:59.087Z,84.35
2019-05-22T05:34:37.646Z,84.49
2019-05-22T05:37:08.153Z,84.60
2019-05-22T05:39:42.334Z,84.32
2019-05-22T05:42:12.076Z,84.12
2019-05-22T05:44:42.448Z,84.05
2019-05-22T05:47:12.289Z,84.01
2019-05-22T05:49:42.511Z,84.04
2019-05-22T05:52:13.435Z,83.83
2019-05-22T05:54:43.796Z,83.46
2019-05-22T05:57:34.523Z,83.07
2019-05-22T06:00:08.349Z,82.71
2019-05-22T06:02:37.999Z,82.64
2019-05-22T06:05:08.295Z,82.91
2019-05-22T06:07:38.564Z,82.79
2019-05-22T06:10:27.816Z,82.76
2019-05-22T06:12:58.434Z,82.67
2019-05-22T06:15:46.357Z,82.58
2019-05-22T06:18:27.814Z,82.74
2019-05-22T06:21:03.990Z,82.72
2019-05-22T06:23:32.762Z,82.58
2019-05-22T06:26:04.986Z,82.72
2019-05-22T06:28:38.228Z,82.83
2019-05-22T06:31:11.235Z,82.50
2019-05-22T06:33:40.730Z,82.52
2019-05-22T06:36:13.087Z,82.34
2019-05-22T06:38:52.496Z,82.16
2019-05-22T06:41:24.577Z,82.30
2019-05-22T06:44:07.099Z,82.30
2019-05-22T06:46:49.529Z,82.36
2019-05-22T06:49:34.168Z,82.13
2019-05-22T06:52:05.496Z,81.82
2019-05-22T06:54:35.162Z,82.03
2019-05-22T06:57:08.249Z,81.83
2019-05-22T06:59:38.574Z,81.57
2019-05-22T07:02:09.762Z,81.16
2019-05-22T07:04:40.169Z,81.46
2019-05-22T07:07:11.808Z,81.38
2019-05-22T07:09:41.960Z,81.21
2019-05-22T07:12:17.473Z,81.65
2019-05-22T07:15:07.091Z,82.01
2019-05-22T07:17:39.202Z,82.43
2019-05-22T07:20:10.975Z,82.64
2019-05-22T07:22:40.619Z,82.81
2019-05-22T07:25:10.957Z,82.86
2019-05-22T07:27:41.255Z,83.08
2019-05-22T07:30:11.245Z,82.91
2019-05-22T07:32:42.675Z,82.36
2019-05-22T07:35:13.289Z,82.14
2019-05-22T07:37:45.804Z,82.04
2019-05-22T07:40:15.659Z,81.72
2019-05-22T07:42:45.755Z,81.29
2019-05-22T07:45:16.408Z,81.05
2019-05-22T07:47:47.963Z,80.24
2019-05-22T07:50:19.512Z,79.98
2019-05-22T07:52:50.475Z,79.15
2019-05-22T07:55:22.277Z,78.49
2019-05-22T07:58:09.980Z,78.82
2019-05-22T08:00:42.758Z,78.39
2019-05-22T08:03:12.687Z,78.45
2019-05-22T08:05:45.282Z,78.65
2019-05-22T08:08:18.743Z,79.09
2019-05-22T08:10:47.895Z,79.50
2019-05-22T08:13:18.115Z,79.69
2019-05-22T08:15:48.216Z,80.35
2019-05-22T08:18:18.246Z,80.85
2019-05-22T08:20:48.543Z,81.45
2019-05-22T08:23:19.212Z,81.42
2019-05-22T08:25:48.859Z,81.75
2019-05-22T08:28:19.927Z,82.16
2019-05-22T08:30:50.074Z,82.46
2019-05-22T08:33:20.895Z,82.59
2019-05-22T08:35:52.956Z,82.35
2019-05-22T08:38:29.154Z,81.97
2019-05-22T08:41:01.307Z,81.50
2019-05-22T08:43:56.132Z,81.61
2019-05-22T08:46:07.545Z,81.42
2019-05-22T08:48:40.618Z,81.20
2019-05-22T08:51:10.895Z,80.85
2019-05-22T08:53:47.641Z,80.67
2019-05-22T08:56:13.198Z,80.84
2019-05-22T08:58:45.111Z,80.94
2019-05-22T09:01:15.782Z,80.77
2019-05-22T09:03:45.507Z,80.39
2019-05-22T09:06:16.018Z,80.03
2019-05-22T09:08:46.154Z,80.26
2019-05-22T09:11:15.770Z,80.00
2019-05-22T09:13:45.516Z,79.75
2019-05-22T09:16:16.857Z,79.15
2019-05-22T09:18:46.700Z,79.39
2019-05-22T09:21:16.708Z,78.73
2019-05-22T09:23:47.439Z,79.05
2019-05-22T09:26:18.387Z,79.00
2019-05-22T09:28:47.944Z,79.24
2019-05-22T09:31:18.576Z,78.60
2019-05-22T09:33:49.175Z,78.68
2019-05-22T09:36:18.634Z,78.63
2019-05-22T09:38:52.196Z,78.91
2019-05-22T09:41:20.210Z,78.93
2019-05-22T09:43:49.706Z,79.45
2019-05-22T09:46:19.376Z,79.54
2019-05-22T09:48:49.001Z,78.72
2019-05-22T09:51:19.801Z,78.36
2019-05-22T09:53:49.695Z,78.21
2019-05-22T09:56:19.315Z,78.45
2019-05-22T09:58:48.817Z,78.82
2019-05-22T10:01:18.510Z,78.57
2019-05-22T10:03:48.448Z,78.43
2019-05-22T10:06:21.528Z,78.74
2019-05-22T10:08:49.675Z,78.93
2019-05-22T10:11:20.831Z,78.94
2019-05-22T10:13:50.706Z,78.63
2019-05-22T10:16:20.747Z,79.12
2019-05-22T10:18:53.059Z,79.39
2019-05-22T10:21:22.320Z,79.37
2019-05-22T10:23:52.399Z,80.17
2019-05-22T10:26:22.109Z,80.68
2019-05-22T10:28:51.984Z,80.85
2019-05-22T10:31:22.863Z,80.70
2019-05-22T10:33:52.597Z,80.18
2019-05-22T10:36:22.194Z,80.06
2019-05-22T10:38:51.731Z,80.00
2019-05-22T10:41:22.218Z,80.22
2019-05-22T10:43:52.194Z,80.32
2019-05-22T10:46:22.346Z,80.14
2019-05-22T10:48:51.928Z,79.76
2019-05-22T10:51:21.793Z,79.22
2019-05-22T10:53:51.910Z,78.66
2019-05-22T10:56:21.368Z,78.08
2019-05-22T10:58:52.307Z,75.73
2019-05-22T11:01:23.367Z,74.18
2019-05-22T11:03:54.798Z,73.42
2019-05-22T11:06:25.001Z,73.29
2019-05-22T11:08:55.561Z,73.30
2019-05-22T11:11:25.258Z,73.88
2019-05-22T11:14:01.367Z,73.42
2019-05-22T11:16:27.966Z,73.48
2019-05-22T11:19:21.328Z,74.08
2019-05-22T11:22:13.491Z,74.16
2019-05-22T11:51:33.981Z,72.24
2019-05-22T11:55:07.298Z,72.26
2019-05-22T12:05:19.917Z,73.83
2019-05-22T12:20:11.513Z,72.69
2019-05-22T12:23:25.963Z,70.68
2019-05-22T12:26:03.977Z,70.27
2019-05-22T12:32:15.079Z,69.38
2019-05-22T12:38:12.458Z,68.55
2019-05-22T12:41:00.358Z,68.84
2019-05-22T12:47:00.785Z,68.22
2019-05-22T12:53:01.886Z,68.01
2019-05-22T12:55:35.807Z,67.70
2019-05-22T12:58:11.603Z,67.98
2019-05-22T13:00:43.929Z,67.92
2019-05-22T13:03:19.082Z,66.81
2019-05-22T13:06:15.223Z,67.10
2019-05-22T14:32:31.041Z,60.55
2019-05-22T14:34:59.550Z,59.80
2019-05-22T14:37:29.408Z,58.49
2019-05-22T14:39:59.080Z,57.32
2019-05-22T14:42:29.734Z,57.37
2019-05-22T14:44:59.484Z,57.66
2019-05-22T14:47:29.212Z,57.81
2019-05-22T14:49:58.841Z,57.52
2019-05-22T14:52:28.937Z,56.83
2019-05-22T14:54:58.891Z,55.44
2019-05-22T14:57:28.501Z,56.09
2019-05-22T14:59:58.244Z,55.42
2019-05-22T15:02:28.303Z,54.72
2019-05-22T15:04:58.433Z,54.38
2019-05-22T15:07:27.958Z,55.61
2019-05-22T15:09:57.833Z,54.70
2019-05-22T15:12:27.782Z,54.82
2019-05-22T15:14:58.714Z,55.13
2019-05-22T15:17:32.835Z,54.68
2019-05-22T15:19:59.675Z,54.75
2019-05-22T15:22:29.892Z,55.37
2019-05-22T15:24:59.629Z,54.82
2019-05-22T15:27:29.858Z,54.79
2019-05-22T15:29:59.783Z,54.65
2019-05-22T15:32:30.315Z,53.02
2019-05-22T15:35:00.035Z,52.45
2019-05-22T15:37:29.823Z,53.52
2019-05-22T15:39:59.391Z,52.74
2019-05-22T15:42:34.666Z,52.78
2019-05-22T15:45:07.322Z,54.09
2019-05-22T15:47:53.766Z,54.33
2019-05-22T15:50:11.059Z,54.94
2019-05-22T15:52:43.644Z,55.53
2019-05-22T15:55:14.549Z,55.36
2019-05-22T15:57:45.520Z,55.87
2019-05-22T16:00:19.060Z,54.20
2019-05-22T16:02:49.792Z,54.91
2019-05-22T16:05:20.926Z,55.63
2019-05-22T16:07:52.753Z,55.56
2019-05-22T16:10:24.145Z,54.95
2019-05-22T16:12:55.547Z,55.37
2019-05-22T16:15:26.903Z,55.07
2019-05-22T16:18:11.133Z,55.48
2019-05-22T16:20:32.847Z,55.82
2019-05-22T16:23:03.012Z,55.89
2019-05-22T16:25:33.695Z,55.44
2019-05-22T16:28:04.480Z,54.88
2019-05-22T16:30:35.010Z,54.62
2019-05-22T16:33:07.042Z,54.18
2019-05-22T16:35:36.828Z,54.53
2019-05-22T16:38:08.410Z,53.92
2019-05-22T16:40:39.640Z,54.21
2019-05-22T16:43:10.256Z,54.70
2019-05-22T16:45:40.114Z,54.26
2019-05-22T16:48:27.311Z,53.80
2019-05-22T16:50:42.602Z,54.07
2019-05-22T16:53:13.765Z,54.61
2019-05-22T16:55:44.104Z,53.19
2019-05-22T16:58:14.069Z,53.49
2019-05-22T17:00:45.793Z,54.02
2019-05-22T17:03:17.046Z,54.09
2019-05-22T17:05:46.797Z,54.97
2019-05-22T17:08:16.833Z,55.33
2019-05-22T17:10:46.843Z,55.55
2019-05-22T17:13:16.763Z,55.91
2019-05-22T17:15:47.430Z,56.37
2019-05-22T17:18:18.081Z,56.82
2019-05-22T17:20:48.217Z,54.31
2019-05-22T17:23:17.747Z,50.67
2019-05-22T17:25:47.836Z,51.83
2019-05-22T17:28:17.807Z,52.75
2019-05-22T17:30:47.867Z,53.18
2019-05-22T17:33:18.434Z,53.70
2019-05-22T17:35:48.131Z,54.10
2019-05-22T17:38:18.957Z,54.71
2019-05-22T17:40:50.162Z,55.39
2019-05-22T17:43:20.451Z,55.56
2019-05-22T17:45:51.862Z,55.25
2019-05-22T17:48:21.899Z,55.63
2019-05-22T17:50:53.559Z,55.98
2019-05-22T17:53:24.201Z,55.90
2019-05-22T17:55:54.451Z,56.43
2019-05-22T17:58:29.004Z,55.57
2019-05-22T18:00:56.282Z,56.17
2019-05-22T18:03:25.947Z,56.35
2019-05-22T18:05:55.773Z,56.23
2019-05-22T18:08:26.405Z,56.65
2019-05-22T18:10:58.063Z,56.85
2019-05-22T18:13:28.949Z,55.79
2019-05-22T18:15:58.790Z,56.04
2019-05-22T18:18:28.493Z,56.40
2019-05-22T18:20:58.185Z,56.59
2019-05-22T18:23:27.735Z,56.89
2019-05-22T18:25:57.295Z,57.42
2019-05-22T18:28:27.426Z,57.65
2019-05-22T18:30:57.305Z,58.04
2019-05-22T18:33:28.199Z,57.79
2019-05-22T18:35:59.193Z,57.61
2019-05-22T18:38:28.744Z,57.91
2019-05-22T18:40:59.824Z,58.19
2019-05-22T18:43:29.604Z,58.63
2019-05-22T18:45:59.247Z,58.72
2019-05-22T18:48:28.799Z,59.01
2019-05-22T18:50:58.585Z,59.28
2019-05-22T18:53:28.249Z,59.46
2019-05-22T18:55:57.916Z,59.56
2019-05-22T18:58:28.206Z,59.98
2019-05-22T19:00:58.832Z,60.13
2019-05-22T19:03:28.459Z,60.32
2019-05-22T19:05:58.158Z,60.53
2019-05-22T19:08:28.212Z,60.87
2019-05-22T19:10:58.741Z,61.07
2019-05-22T19:13:28.380Z,61.22
2019-05-22T19:15:57.854Z,61.37
2019-05-22T19:18:27.554Z,61.63
2019-05-22T19:20:57.040Z,61.81
2019-05-22T19:23:26.604Z,61.98
2019-05-22T19:25:56.338Z,62.24
2019-05-22T19:28:41.979Z,62.38
2019-05-22T19:30:57.559Z,62.57
2019-05-22T19:33:27.302Z,63.03
2019-05-22T19:35:56.860Z,63.12
2019-05-22T19:38:27.253Z,63.24
2019-05-22T19:40:57.149Z,63.58
2019-05-22T19:43:26.697Z,64.05
2019-05-22T19:45:56.851Z,64.02
2019-05-22T19:48:28.541Z,64.18
2019-05-22T19:51:01.770Z,64.37
2019-05-22T19:53:31.087Z,64.56
2019-05-22T19:56:00.821Z,64.74
2019-05-22T19:58:30.766Z,64.96
2019-05-22T20:01:00.494Z,65.20
2019-05-22T20:03:30.303Z,65.37
2019-05-22T20:06:00.465Z,65.80
2019-05-22T20:08:30.362Z,66.04
2019-05-22T20:11:00.294Z,66.27
2019-05-22T20:13:30.319Z,66.46
2019-05-22T20:15:59.912Z,66.82
2019-05-22T20:18:30.157Z,66.89
2019-05-22T20:21:00.583Z,67.17
2019-05-22T20:23:35.774Z,67.26
2019-05-22T20:26:02.524Z,67.69
2019-05-22T20:28:32.802Z,67.84
2019-05-22T20:31:03.030Z,68.12
2019-05-22T20:33:33.059Z,68.39
2019-05-22T20:36:03.261Z,68.73
2019-05-22T20:38:33.780Z,68.97
2019-05-22T20:41:03.690Z,69.26
2019-05-22T20:43:34.063Z,69.54
2019-05-22T20:46:05.929Z,69.71
2019-05-22T20:48:36.052Z,70.06
2019-05-22T20:51:07.742Z,70.25
2019-05-22T20:53:52.990Z,70.58
2019-05-22T20:56:11.476Z,70.88
2019-05-22T20:58:43.251Z,71.22
2019-05-22T21:01:13.572Z,71.51
2019-05-22T21:03:44.007Z,71.78
2019-05-22T21:06:15.701Z,72.06
2019-05-22T21:08:46.595Z,72.32
2019-05-22T21:11:17.621Z,72.55
2019-05-22T21:13:47.655Z,72.80
2019-05-22T21:16:17.767Z,73.05
2019-05-22T21:18:52.272Z,73.29
2019-05-22T21:21:23.688Z,73.43
2019-05-22T21:24:07.718Z,73.50
2019-05-22T21:26:25.679Z,73.62
2019-05-22T21:28:55.503Z,73.75
2019-05-22T21:31:25.666Z,73.96
2019-05-22T21:33:56.913Z,74.10
2019-05-22T21:36:29.619Z,74.38
2019-05-22T21:38:59.750Z,74.49
2019-05-22T21:41:30.307Z,74.77
2019-05-22T21:44:00.083Z,74.93
2019-05-22T21:46:30.122Z,74.98
2019-05-22T21:49:00.113Z,74.91
2019-05-22T21:51:29.976Z,74.90
2019-05-22T21:53:59.506Z,74.96
2019-05-22T21:56:30.472Z,75.05
2019-05-22T21:59:00.043Z,75.14
2019-05-22T22:01:34.893Z,75.28
2019-05-22T22:04:06.056Z,75.24
2019-05-22T22:06:35.971Z,75.31
2019-05-22T22:09:08.316Z,75.42
2019-05-22T22:11:38.786Z,75.60
2019-05-22T22:14:09.033Z,75.84
2019-05-22T22:16:39.790Z,75.87
2019-05-22T22:19:10.986Z,75.83
2019-05-22T22:21:40.803Z,75.92
2019-05-22T22:24:10.894Z,76.04
2019-05-22T22:26:41.073Z,76.08
2019-05-22T22:29:10.649Z,76.26
2019-05-22T22:31:41.482Z,76.53
2019-05-22T22:34:17.479Z,76.55
2019-05-22T22:36:49.466Z,76.56
2019-05-22T22:39:21.552Z,76.73
2019-05-22T22:41:52.354Z,76.76
2019-05-22T22:44:23.179Z,76.74
2019-05-22T22:46:57.466Z,76.67
2019-05-22T22:49:28.128Z,76.57
2019-05-22T22:51:59.227Z,76.42
2019-05-22T22:54:29.152Z,76.24
2019-05-22T22:57:00.059Z,75.84
2019-05-22T22:59:29.853Z,75.44
2019-05-22T23:02:01.657Z,75.38
2019-05-22T23:04:32.107Z,75.38
2019-05-22T23:07:06.219Z,75.31
2019-05-22T23:09:38.885Z,75.35
2019-05-22T23:12:09.999Z,75.31
2019-05-22T23:14:42.493Z,75.37
2019-05-22T23:17:12.752Z,75.54
2019-05-22T23:19:43.080Z,75.87
2019-05-22T23:22:13.355Z,76.16
2019-05-22T23:24:43.887Z,76.30
2019-05-22T23:27:15.262Z,76.39
2019-05-22T23:29:45.401Z,76.51
2019-05-22T23:32:17.817Z,76.57
2019-05-22T23:34:48.427Z,76.60
2019-05-22T23:37:20.448Z,76.76
2019-05-22T23:39:53.106Z,76.92
2019-05-22T23:42:25.743Z,76.94
2019-05-22T23:44:57.115Z,77.03
2019-05-22T23:47:28.111Z,77.16
2019-05-22T23:49:58.077Z,77.16
2019-05-22T23:52:27.978Z,77.24
2019-05-22T23:54:58.012Z,77.45
2019-05-22T23:57:28.300Z,77.52
2019-05-22T23:59:58.919Z,77.61
